sensor_id;sensor_type;location;lat;lon;timestamp;noise_LAeq;noise_LA_min;noise_LA_max;noise_LA01;noise_LA95
43787;Laerm;29409;49.306;8.500;2023-09-18T00:00:49;39.83;36.45;42.65;;
43787;Laerm;29409;49.306;8.500;2023-09-18T00:01:52;39.30;35.66;44.87;;
43787;Laerm;29409;49.306;8.500;2023-09-18T00:02:52;45.72;35.66;64.46;;
43787;Laerm;29409;49.306;8.500;2023-09-18T00:03:53;39.53;35.66;43.86;;
43787;Laerm;29409;49.306;8.500;2023-09-18T00:04:53;38.91;34.69;41.96;;
43787;Laerm;29409;49.306;8.500;2023-09-18T00:05:54;38.71;33.90;41.61;;
43787;Laerm;29409;49.306;8.500;2023-09-18T00:06:54;38.75;34.69;41.61;;
43787;Laerm;29409;49.306;8.500;2023-09-18T00:07:54;38.84;34.31;41.75;;
43787;Laerm;29409;49.306;8.500;2023-09-18T00:08:55;39.24;35.36;44.07;;
43787;Laerm;29409;49.306;8.500;2023-09-18T00:09:55;38.39;34.31;51.29;;
43787;Laerm;29409;49.306;8.500;2023-09-18T00:10:56;39.95;35.66;47.14;;
43787;Laerm;29409;49.306;8.500;2023-09-18T00:11:57;38.58;33.90;41.38;;
43787;Laerm;29409;49.306;8.500;2023-09-18T00:12:57;39.16;35.36;42.35;;
43787;Laerm;29409;49.306;8.500;2023-09-18T00:13:57;38.90;35.04;41.96;;
43787;Laerm;29409;49.306;8.500;2023-09-18T00:14:57;40.10;35.36;48.02;;
43787;Laerm;29409;49.306;8.500;2023-09-18T00:15:58;39.07;34.69;43.39;;
43787;Laerm;29409;49.306;8.500;2023-09-18T00:16:59;39.43;35.66;42.41;;
43787;Laerm;29409;49.306;8.500;2023-09-18T00:18:01;40.95;36.20;47.12;;
43787;Laerm;29409;49.306;8.500;2023-09-18T00:19:02;39.14;34.69;42.64;;
43787;Laerm;29409;49.306;8.500;2023-09-18T00:20:03;39.47;36.10;42.76;;
43787;Laerm;29409;49.306;8.500;2023-09-18T00:21:06;39.21;34.69;43.81;;
43787;Laerm;29409;49.306;8.500;2023-09-18T00:22:06;39.06;34.69;48.20;;
43787;Laerm;29409;49.306;8.500;2023-09-18T00:23:07;38.65;33.90;41.06;;
43787;Laerm;29409;49.306;8.500;2023-09-18T00:24:08;38.61;34.31;42.03;;
43787;Laerm;29409;49.306;8.500;2023-09-18T00:25:08;38.27;33.90;41.38;;
43787;Laerm;29409;49.306;8.500;2023-09-18T00:26:08;38.65;34.31;44.97;;
43787;Laerm;29409;49.306;8.500;2023-09-18T00:27:08;38.53;34.69;42.65;;
43787;Laerm;29409;49.306;8.500;2023-09-18T00:28:11;38.54;35.04;41.14;;
43787;Laerm;29409;49.306;8.500;2023-09-18T00:29:11;39.22;35.66;42.65;;
43787;Laerm;29409;49.306;8.500;2023-09-18T00:30:12;38.86;33.44;41.96;;
43787;Laerm;29409;49.306;8.500;2023-09-18T00:31:12;38.55;34.69;45.01;;
43787;Laerm;29409;49.306;8.500;2023-09-18T00:32:12;38.49;33.90;41.38;;
43787;Laerm;29409;49.306;8.500;2023-09-18T00:33:13;39.36;34.31;45.42;;
43787;Laerm;29409;49.306;8.500;2023-09-18T00:34:13;38.73;35.04;41.96;;
43787;Laerm;29409;49.306;8.500;2023-09-18T00:35:13;38.75;34.69;41.06;;
43787;Laerm;29409;49.306;8.500;2023-09-18T00:36:14;39.56;35.36;44.27;;
43787;Laerm;29409;49.306;8.500;2023-09-18T00:37:14;39.47;35.66;45.48;;
43787;Laerm;29409;49.306;8.500;2023-09-18T00:38:14;39.35;35.36;45.89;;
43787;Laerm;29409;49.306;8.500;2023-09-18T00:39:14;38.99;34.31;45.91;;
43787;Laerm;29409;49.306;8.500;2023-09-18T00:40:15;38.66;33.44;43.19;;
43787;Laerm;29409;49.306;8.500;2023-09-18T00:41:16;38.73;34.69;42.03;;
43787;Laerm;29409;49.306;8.500;2023-09-18T00:42:16;39.15;33.90;42.88;;
43787;Laerm;29409;49.306;8.500;2023-09-18T00:43:18;40.09;35.04;43.77;;
43787;Laerm;29409;49.306;8.500;2023-09-18T00:44:18;38.92;34.69;42.41;;
43787;Laerm;29409;49.306;8.500;2023-09-18T00:45:19;38.60;34.69;43.58;;
43787;Laerm;29409;49.306;8.500;2023-09-18T00:46:20;38.76;33.44;42.93;;
43787;Laerm;29409;49.306;8.500;2023-09-18T00:47:21;38.52;34.31;42.65;;
43787;Laerm;29409;49.306;8.500;2023-09-18T00:48:21;39.79;32.93;43.86;;
43787;Laerm;29409;49.306;8.500;2023-09-18T00:49:22;39.61;35.66;43.04;;
43787;Laerm;29409;49.306;8.500;2023-09-18T00:50:22;39.40;34.69;42.76;;
43787;Laerm;29409;49.306;8.500;2023-09-18T00:51:23;39.33;33.90;43.19;;
43787;Laerm;29409;49.306;8.500;2023-09-18T00:52:24;38.84;35.36;42.29;;
43787;Laerm;29409;49.306;8.500;2023-09-18T00:53:25;39.77;34.69;45.54;;
43787;Laerm;29409;49.306;8.500;2023-09-18T00:54:26;39.98;34.31;43.09;;
43787;Laerm;29409;49.306;8.500;2023-09-18T00:55:27;39.22;35.66;42.22;;
43787;Laerm;29409;49.306;8.500;2023-09-18T00:56:28;39.79;35.94;44.19;;
43787;Laerm;29409;49.306;8.500;2023-09-18T00:57:29;41.07;35.36;64.14;;
43787;Laerm;29409;49.306;8.500;2023-09-18T00:58:29;39.22;35.36;50.67;;
43787;Laerm;29409;49.306;8.500;2023-09-18T00:59:29;38.95;34.31;49.74;;
43787;Laerm;29409;49.306;8.500;2023-09-18T01:00:31;39.05;33.97;42.35;;
43787;Laerm;29409;49.306;8.500;2023-09-18T01:01:31;39.60;35.36;44.58;;
43787;Laerm;29409;49.306;8.500;2023-09-18T01:02:32;39.31;35.36;44.19;;
43787;Laerm;29409;49.306;8.500;2023-09-18T01:03:32;38.65;35.04;42.29;;
43787;Laerm;29409;49.306;8.500;2023-09-18T01:04:33;38.51;32.93;41.22;;
43787;Laerm;29409;49.306;8.500;2023-09-18T01:05:33;38.55;34.69;41.14;;
43787;Laerm;29409;49.306;8.500;2023-09-18T01:06:33;38.95;34.69;42.41;;
43787;Laerm;29409;49.306;8.500;2023-09-18T01:07:34;38.52;33.90;41.14;;
43787;Laerm;29409;49.306;8.500;2023-09-18T01:08:34;38.62;33.90;41.22;;
43787;Laerm;29409;49.306;8.500;2023-09-18T01:09:34;38.54;34.69;43.04;;
43787;Laerm;29409;49.306;8.500;2023-09-18T01:10:44;38.87;34.31;42.35;;
43787;Laerm;29409;49.306;8.500;2023-09-18T01:12:02;39.69;32.35;43.68;;
43787;Laerm;29409;49.306;8.500;2023-09-18T01:13:08;38.80;35.36;42.22;;
43787;Laerm;29409;49.306;8.500;2023-09-18T01:14:14;38.56;34.31;41.30;;
43787;Laerm;29409;49.306;8.500;2023-09-18T01:15:18;38.72;33.90;41.06;;
43787;Laerm;29409;49.306;8.500;2023-09-18T01:16:24;38.93;33.90;41.46;;
43787;Laerm;29409;49.306;8.500;2023-09-18T01:17:26;38.71;33.90;41.46;;
43787;Laerm;29409;49.306;8.500;2023-09-18T01:18:26;38.52;35.36;41.38;;
43787;Laerm;29409;49.306;8.500;2023-09-18T01:20:37;38.70;34.31;42.16;;
43787;Laerm;29409;49.306;8.500;2023-09-18T01:21:38;38.57;34.69;41.61;;
43787;Laerm;29409;49.306;8.500;2023-09-18T01:22:38;38.48;33.97;41.96;;
43787;Laerm;29409;49.306;8.500;2023-09-18T01:23:51;38.38;33.90;41.14;;
43787;Laerm;29409;49.306;8.500;2023-09-18T01:24:52;38.62;35.04;42.47;;
43787;Laerm;29409;49.306;8.500;2023-09-18T01:25:52;38.38;34.31;40.89;;
43787;Laerm;29409;49.306;8.500;2023-09-18T01:26:54;38.45;34.31;41.22;;
43787;Laerm;29409;49.306;8.500;2023-09-18T01:27:54;38.53;33.90;41.89;;
43787;Laerm;29409;49.306;8.500;2023-09-18T01:28:55;38.48;33.90;41.89;;
43787;Laerm;29409;49.306;8.500;2023-09-18T01:29:56;38.76;35.04;42.16;;
43787;Laerm;29409;49.306;8.500;2023-09-18T01:30:56;38.58;34.31;41.14;;
43787;Laerm;29409;49.306;8.500;2023-09-18T01:31:57;38.71;34.69;41.96;;
43787;Laerm;29409;49.306;8.500;2023-09-18T01:32:58;38.31;32.93;41.30;;
43787;Laerm;29409;49.306;8.500;2023-09-18T01:33:59;42.79;32.35;57.04;;
43787;Laerm;29409;49.306;8.500;2023-09-18T01:35:01;41.91;36.10;49.82;;
43787;Laerm;29409;49.306;8.500;2023-09-18T01:36:02;39.45;35.04;46.28;;
43787;Laerm;29409;49.306;8.500;2023-09-18T01:37:03;38.56;35.04;40.80;;
43787;Laerm;29409;49.306;8.500;2023-09-18T01:38:05;38.58;34.69;40.98;;
43787;Laerm;29409;49.306;8.500;2023-09-18T01:39:06;38.69;34.31;40.89;;
43787;Laerm;29409;49.306;8.500;2023-09-18T01:40:07;39.04;36.20;41.46;;
43787;Laerm;29409;49.306;8.500;2023-09-18T01:41:08;40.19;37.52;42.29;;
43787;Laerm;29409;49.306;8.500;2023-09-18T01:42:09;43.83;38.74;49.24;;
43787;Laerm;29409;49.306;8.500;2023-09-18T01:43:09;57.92;48.03;62.46;;
43787;Laerm;29409;49.306;8.500;2023-09-18T01:44:09;62.13;53.97;68.06;;
43787;Laerm;29409;49.306;8.500;2023-09-18T01:45:10;61.02;52.36;77.29;;
43787;Laerm;29409;49.306;8.500;2023-09-18T01:46:11;66.57;47.91;78.83;;
43787;Laerm;29409;49.306;8.500;2023-09-18T01:47:12;45.47;41.14;62.17;;
43787;Laerm;29409;49.306;8.500;2023-09-18T01:48:13;42.45;39.70;51.13;;
43787;Laerm;29409;49.306;8.500;2023-09-18T01:49:13;40.80;36.91;48.51;;
43787;Laerm;29409;49.306;8.500;2023-09-18T01:50:13;40.54;37.12;44.43;;
43787;Laerm;29409;49.306;8.500;2023-09-18T01:51:14;39.80;36.45;48.42;;
43787;Laerm;29409;49.306;8.500;2023-09-18T01:52:15;39.55;36.20;46.69;;
43787;Laerm;29409;49.306;8.500;2023-09-18T01:53:16;39.53;36.20;47.26;;
43787;Laerm;29409;49.306;8.500;2023-09-18T01:54:16;39.86;36.45;42.41;;
43787;Laerm;29409;49.306;8.500;2023-09-18T01:55:16;40.33;36.69;44.31;;
43787;Laerm;29409;49.306;8.500;2023-09-18T01:56:16;40.22;36.69;44.35;;
43787;Laerm;29409;49.306;8.500;2023-09-18T01:57:17;40.33;37.52;42.29;;
43787;Laerm;29409;49.306;8.500;2023-09-18T01:58:17;40.08;36.45;42.03;;
43787;Laerm;29409;49.306;8.500;2023-09-18T01:59:17;39.89;37.12;42.03;;
43787;Laerm;29409;49.306;8.500;2023-09-18T02:00:18;40.79;36.69;47.08;;
43787;Laerm;29409;49.306;8.500;2023-09-18T02:01:18;39.83;35.94;43.77;;
43787;Laerm;29409;49.306;8.500;2023-09-18T02:02:18;39.68;36.45;41.68;;
43787;Laerm;29409;49.306;8.500;2023-09-18T02:03:19;40.09;36.20;42.98;;
43787;Laerm;29409;49.306;8.500;2023-09-18T02:04:21;42.07;36.91;45.63;;
43787;Laerm;29409;49.306;8.500;2023-09-18T02:05:22;47.17;37.12;78.25;;
43787;Laerm;29409;49.306;8.500;2023-09-18T02:06:22;39.72;34.31;41.82;;
43787;Laerm;29409;49.306;8.500;2023-09-18T02:07:23;39.75;36.45;42.16;;
43787;Laerm;29409;49.306;8.500;2023-09-18T02:08:23;39.82;35.36;42.16;;
43787;Laerm;29409;49.306;8.500;2023-09-18T02:09:23;39.78;36.20;42.03;;
43787;Laerm;29409;49.306;8.500;2023-09-18T02:10:23;40.73;37.88;44.45;;
43787;Laerm;29409;49.306;8.500;2023-09-18T02:11:24;39.91;34.69;43.09;;
43787;Laerm;29409;49.306;8.500;2023-09-18T02:12:24;40.30;34.69;42.65;;
43787;Laerm;29409;49.306;8.500;2023-09-18T02:13:24;40.38;34.31;43.19;;
43787;Laerm;29409;49.306;8.500;2023-09-18T02:14:25;40.57;35.04;42.88;;
43787;Laerm;29409;49.306;8.500;2023-09-18T02:15:25;40.15;36.91;42.16;;
43787;Laerm;29409;49.306;8.500;2023-09-18T02:16:26;39.95;36.69;42.35;;
43787;Laerm;29409;49.306;8.500;2023-09-18T02:17:26;40.35;35.94;45.14;;
43787;Laerm;29409;49.306;8.500;2023-09-18T02:18:26;40.62;35.04;45.14;;
43787;Laerm;29409;49.306;8.500;2023-09-18T02:19:27;40.04;36.91;42.53;;
43787;Laerm;29409;49.306;8.500;2023-09-18T02:20:27;40.28;37.32;43.99;;
43787;Laerm;29409;49.306;8.500;2023-09-18T02:21:27;39.93;37.12;42.88;;
43787;Laerm;29409;49.306;8.500;2023-09-18T02:22:27;39.68;36.69;42.22;;
43787;Laerm;29409;49.306;8.500;2023-09-18T02:23:28;39.71;36.69;41.89;;
43787;Laerm;29409;49.306;8.500;2023-09-18T02:24:28;43.26;37.32;56.44;;
43787;Laerm;29409;49.306;8.500;2023-09-18T02:25:28;40.10;37.52;43.24;;
43787;Laerm;29409;49.306;8.500;2023-09-18T02:26:29;40.08;36.91;42.88;;
43787;Laerm;29409;49.306;8.500;2023-09-18T02:27:29;40.59;36.56;43.19;;
43787;Laerm;29409;49.306;8.500;2023-09-18T02:28:30;41.10;37.88;44.31;;
43787;Laerm;29409;49.306;8.500;2023-09-18T02:29:30;41.11;37.32;46.25;;
43787;Laerm;29409;49.306;8.500;2023-09-18T02:30:31;40.48;36.91;42.98;;
43787;Laerm;29409;49.306;8.500;2023-09-18T02:31:31;40.92;36.77;44.39;;
43787;Laerm;29409;49.306;8.500;2023-09-18T02:32:31;40.29;37.32;42.47;;
43787;Laerm;29409;49.306;8.500;2023-09-18T02:33:33;40.30;37.52;44.39;;
43787;Laerm;29409;49.306;8.500;2023-09-18T02:34:34;39.59;36.69;41.89;;
43787;Laerm;29409;49.306;8.500;2023-09-18T02:35:35;39.99;36.91;42.29;;
43787;Laerm;29409;49.306;8.500;2023-09-18T02:36:36;40.44;37.52;46.05;;
43787;Laerm;29409;49.306;8.500;2023-09-18T02:37:36;41.36;37.70;46.87;;
43787;Laerm;29409;49.306;8.500;2023-09-18T02:38:37;40.49;37.32;44.51;;
43787;Laerm;29409;49.306;8.500;2023-09-18T02:39:37;40.85;37.70;45.91;;
43787;Laerm;29409;49.306;8.500;2023-09-18T02:40:37;40.00;36.91;42.16;;
43787;Laerm;29409;49.306;8.500;2023-09-18T02:41:38;40.28;34.69;42.53;;
43787;Laerm;29409;49.306;8.500;2023-09-18T02:42:38;40.04;36.91;43.29;;
43787;Laerm;29409;49.306;8.500;2023-09-18T02:43:38;40.64;37.12;43.90;;
43787;Laerm;29409;49.306;8.500;2023-09-18T02:44:38;41.27;37.70;46.05;;
43787;Laerm;29409;49.306;8.500;2023-09-18T02:45:39;40.64;37.32;42.71;;
43787;Laerm;29409;49.306;8.500;2023-09-18T02:46:40;41.14;37.70;46.15;;
43787;Laerm;29409;49.306;8.500;2023-09-18T02:47:40;40.65;37.70;42.76;;
43787;Laerm;29409;49.306;8.500;2023-09-18T02:48:41;40.81;37.32;43.44;;
43787;Laerm;29409;49.306;8.500;2023-09-18T02:49:44;40.89;37.88;45.94;;
43787;Laerm;29409;49.306;8.500;2023-09-18T02:50:45;41.05;38.52;43.94;;
43787;Laerm;29409;49.306;8.500;2023-09-18T02:51:47;40.98;38.52;42.93;;
43787;Laerm;29409;49.306;8.500;2023-09-18T02:52:48;41.26;38.37;45.45;;
43787;Laerm;29409;49.306;8.500;2023-09-18T02:53:48;42.77;38.37;60.90;;
43787;Laerm;29409;49.306;8.500;2023-09-18T02:54:49;43.70;39.34;54.85;;
43787;Laerm;29409;49.306;8.500;2023-09-18T02:55:50;41.77;39.08;49.03;;
43787;Laerm;29409;49.306;8.500;2023-09-18T02:56:51;41.47;37.52;45.42;;
43787;Laerm;29409;49.306;8.500;2023-09-18T02:57:52;41.57;38.05;45.33;;
43787;Laerm;29409;49.306;8.500;2023-09-18T02:58:54;41.83;38.67;47.52;;
43787;Laerm;29409;49.306;8.500;2023-09-18T02:59:54;40.71;37.12;43.90;;
43787;Laerm;29409;49.306;8.500;2023-09-18T03:00:55;41.00;38.05;45.66;;
43787;Laerm;29409;49.306;8.500;2023-09-18T03:01:57;41.49;38.37;47.08;;
43787;Laerm;29409;49.306;8.500;2023-09-18T03:02:57;42.41;39.46;45.75;;
43787;Laerm;29409;49.306;8.500;2023-09-18T03:03:58;42.92;38.67;50.30;;
43787;Laerm;29409;49.306;8.500;2023-09-18T03:04:58;43.74;40.62;48.80;;
43787;Laerm;29409;49.306;8.500;2023-09-18T03:06:02;49.40;39.21;63.18;;
43787;Laerm;29409;49.306;8.500;2023-09-18T03:07:03;40.94;38.02;44.15;;
43787;Laerm;29409;49.306;8.500;2023-09-18T03:08:04;40.38;36.91;51.59;;
43787;Laerm;29409;49.306;8.500;2023-09-18T03:09:04;40.75;37.52;45.11;;
43787;Laerm;29409;49.306;8.500;2023-09-18T03:10:05;40.84;37.52;50.94;;
43787;Laerm;29409;49.306;8.500;2023-09-18T03:11:11;40.79;37.70;44.07;;
43787;Laerm;29409;49.306;8.500;2023-09-18T03:12:13;43.37;38.18;52.64;;
43787;Laerm;29409;49.306;8.500;2023-09-18T03:13:14;43.31;39.21;52.71;;
43787;Laerm;29409;49.306;8.500;2023-09-18T03:14:14;41.95;38.95;45.91;;
43787;Laerm;29409;49.306;8.500;2023-09-18T03:15:15;41.32;38.21;45.63;;
43787;Laerm;29409;49.306;8.500;2023-09-18T03:16:15;46.79;39.81;61.54;;
43787;Laerm;29409;49.306;8.500;2023-09-18T03:17:15;42.49;39.08;46.69;;
43787;Laerm;29409;49.306;8.500;2023-09-18T03:18:16;43.33;38.95;52.52;;
43787;Laerm;29409;49.306;8.500;2023-09-18T03:19:16;41.45;38.21;45.99;;
43787;Laerm;29409;49.306;8.500;2023-09-18T03:20:16;40.86;37.70;43.85;;
43787;Laerm;29409;49.306;8.500;2023-09-18T03:21:17;40.89;37.70;45.23;;
43787;Laerm;29409;49.306;8.500;2023-09-18T03:22:17;40.81;36.91;45.45;;
43787;Laerm;29409;49.306;8.500;2023-09-18T03:23:17;41.04;37.88;44.76;;
43787;Laerm;29409;49.306;8.500;2023-09-18T03:24:17;40.68;37.70;43.77;;
43787;Laerm;29409;49.306;8.500;2023-09-18T03:25:18;40.31;37.32;42.98;;
43787;Laerm;29409;49.306;8.500;2023-09-18T03:26:19;40.35;36.69;42.76;;
43787;Laerm;29409;49.306;8.500;2023-09-18T03:27:19;41.88;37.88;47.63;;
43787;Laerm;29409;49.306;8.500;2023-09-18T03:28:20;41.92;38.21;47.08;;
43787;Laerm;29409;49.306;8.500;2023-09-18T03:29:20;41.79;38.37;47.98;;
43787;Laerm;29409;49.306;8.500;2023-09-18T03:30:21;40.69;37.32;43.14;;
43787;Laerm;29409;49.306;8.500;2023-09-18T03:31:21;41.41;37.32;46.52;;
43787;Laerm;29409;49.306;8.500;2023-09-18T03:32:22;40.76;37.70;42.76;;
43787;Laerm;29409;49.306;8.500;2023-09-18T03:33:22;43.80;38.37;54.14;;
43787;Laerm;29409;49.306;8.500;2023-09-18T03:34:23;41.54;38.21;45.04;;
43787;Laerm;29409;49.306;8.500;2023-09-18T03:35:28;41.13;37.32;44.54;;
43787;Laerm;29409;49.306;8.500;2023-09-18T03:36:28;41.96;38.21;49.07;;
43787;Laerm;29409;49.306;8.500;2023-09-18T03:37:28;41.97;38.37;48.61;;
43787;Laerm;29409;49.306;8.500;2023-09-18T03:38:29;41.48;38.60;45.20;;
43787;Laerm;29409;49.306;8.500;2023-09-18T03:39:30;41.42;38.67;44.65;;
43787;Laerm;29409;49.306;8.500;2023-09-18T03:40:30;41.07;38.21;46.62;;
43787;Laerm;29409;49.306;8.500;2023-09-18T03:41:30;46.62;39.46;56.69;;
43787;Laerm;29409;49.306;8.500;2023-09-18T03:42:35;42.30;38.67;47.81;;
43787;Laerm;29409;49.306;8.500;2023-09-18T03:43:35;42.14;39.21;49.69;;
43787;Laerm;29409;49.306;8.500;2023-09-18T03:44:36;41.40;38.05;46.45;;
43787;Laerm;29409;49.306;8.500;2023-09-18T03:45:37;41.59;38.05;50.74;;
43787;Laerm;29409;49.306;8.500;2023-09-18T03:46:37;41.40;37.70;44.39;;
43787;Laerm;29409;49.306;8.500;2023-09-18T03:47:39;41.86;38.95;45.97;;
43787;Laerm;29409;49.306;8.500;2023-09-18T03:48:45;41.59;36.20;52.78;;
43787;Laerm;29409;49.306;8.500;2023-09-18T03:49:49;42.20;38.37;58.10;;
43787;Laerm;29409;49.306;8.500;2023-09-18T03:50:49;42.64;39.08;56.93;;
43787;Laerm;29409;49.306;8.500;2023-09-18T03:51:49;43.19;39.81;50.27;;
43787;Laerm;29409;49.306;8.500;2023-09-18T03:52:50;42.75;39.70;53.01;;
43787;Laerm;29409;49.306;8.500;2023-09-18T03:53:51;42.18;38.95;49.47;;
43787;Laerm;29409;49.306;8.500;2023-09-18T03:54:51;45.24;40.71;57.86;;
43787;Laerm;29409;49.306;8.500;2023-09-18T03:55:51;44.81;41.38;55.77;;
43787;Laerm;29409;49.306;8.500;2023-09-18T03:56:51;47.45;42.41;58.73;;
43787;Laerm;29409;49.306;8.500;2023-09-18T03:57:52;47.10;43.00;54.36;;
43787;Laerm;29409;49.306;8.500;2023-09-18T03:58:52;47.57;43.81;54.62;;
43787;Laerm;29409;49.306;8.500;2023-09-18T03:59:57;48.99;42.41;64.31;;
43787;Laerm;29409;49.306;8.500;2023-09-18T04:00:58;42.98;41.03;50.10;;
43787;Laerm;29409;49.306;8.500;2023-09-18T04:01:58;44.75;41.22;50.87;;
43787;Laerm;29409;49.306;8.500;2023-09-18T04:02:58;46.37;41.75;57.26;;
43787;Laerm;29409;49.306;8.500;2023-09-18T04:03:58;43.98;40.03;51.67;;
43787;Laerm;29409;49.306;8.500;2023-09-18T04:05:00;42.73;39.58;54.07;;
43787;Laerm;29409;49.306;8.500;2023-09-18T04:06:01;42.42;39.21;58.76;;
43787;Laerm;29409;49.306;8.500;2023-09-18T04:07:05;41.88;39.21;49.52;;
43787;Laerm;29409;49.306;8.500;2023-09-18T04:08:05;42.69;39.08;54.30;;
43787;Laerm;29409;49.306;8.500;2023-09-18T04:09:05;45.06;39.68;56.04;;
43787;Laerm;29409;49.306;8.500;2023-09-18T04:10:06;46.54;42.88;54.04;;
43787;Laerm;29409;49.306;8.500;2023-09-18T04:11:06;44.90;41.06;57.57;;
43787;Laerm;29409;49.306;8.500;2023-09-18T04:12:09;44.14;41.38;50.66;;
43787;Laerm;29409;49.306;8.500;2023-09-18T04:13:09;47.00;40.33;77.39;;
43787;Laerm;29409;49.306;8.500;2023-09-18T04:14:10;42.88;39.81;52.89;;
43787;Laerm;29409;49.306;8.500;2023-09-18T04:15:10;43.57;39.08;52.46;;
43787;Laerm;29409;49.306;8.500;2023-09-18T04:16:10;44.87;38.95;65.36;;
43787;Laerm;29409;49.306;8.500;2023-09-18T04:17:13;42.93;39.46;55.46;;
43787;Laerm;29409;49.306;8.500;2023-09-18T04:18:15;42.70;39.21;47.04;;
43787;Laerm;29409;49.306;8.500;2023-09-18T04:19:15;42.72;39.58;51.21;;
43787;Laerm;29409;49.306;8.500;2023-09-18T04:20:15;43.24;39.58;51.04;;
43787;Laerm;29409;49.306;8.500;2023-09-18T04:21:17;42.93;38.37;53.07;;
43787;Laerm;29409;49.306;8.500;2023-09-18T04:22:17;41.96;37.52;55.02;;
43787;Laerm;29409;49.306;8.500;2023-09-18T04:23:21;48.71;38.52;66.99;;
43787;Laerm;29409;49.306;8.500;2023-09-18T04:24:22;46.01;38.37;54.47;;
43787;Laerm;29409;49.306;8.500;2023-09-18T04:25:22;42.73;38.21;47.81;;
43787;Laerm;29409;49.306;8.500;2023-09-18T04:26:23;41.63;38.21;50.17;;
43787;Laerm;29409;49.306;8.500;2023-09-18T04:27:23;41.44;38.05;46.93;;
43787;Laerm;29409;49.306;8.500;2023-09-18T04:28:23;43.48;38.05;52.02;;
43787;Laerm;29409;49.306;8.500;2023-09-18T04:29:24;41.17;37.52;48.32;;
43787;Laerm;29409;49.306;8.500;2023-09-18T04:30:24;41.08;37.70;48.51;;
43787;Laerm;29409;49.306;8.500;2023-09-18T04:31:24;41.76;38.05;54.50;;
43787;Laerm;29409;49.306;8.500;2023-09-18T04:32:26;41.95;38.95;54.42;;
43787;Laerm;29409;49.306;8.500;2023-09-18T04:33:27;41.60;36.45;51.69;;
43787;Laerm;29409;49.306;8.500;2023-09-18T04:34:30;41.70;37.88;64.80;;
43787;Laerm;29409;49.306;8.500;2023-09-18T04:35:30;42.62;36.45;52.27;;
43787;Laerm;29409;49.306;8.500;2023-09-18T04:36:31;42.69;38.21;50.03;;
43787;Laerm;29409;49.306;8.500;2023-09-18T04:37:35;43.02;38.95;51.20;;
43787;Laerm;29409;49.306;8.500;2023-09-18T04:38:35;42.21;38.81;46.05;;
43787;Laerm;29409;49.306;8.500;2023-09-18T04:39:35;41.69;37.88;45.46;;
43787;Laerm;29409;49.306;8.500;2023-09-18T04:40:37;41.75;38.21;51.62;;
43787;Laerm;29409;49.306;8.500;2023-09-18T04:41:37;42.75;37.88;51.39;;
43787;Laerm;29409;49.306;8.500;2023-09-18T04:42:38;41.36;37.70;47.38;;
43787;Laerm;29409;49.306;8.500;2023-09-18T04:43:38;41.14;37.88;50.79;;
43787;Laerm;29409;49.306;8.500;2023-09-18T04:44:41;41.69;38.81;50.82;;
43787;Laerm;29409;49.306;8.500;2023-09-18T04:45:42;40.73;37.52;45.45;;
43787;Laerm;29409;49.306;8.500;2023-09-18T04:46:42;41.46;37.88;45.45;;
43787;Laerm;29409;49.306;8.500;2023-09-18T04:47:43;40.67;37.70;44.83;;
43787;Laerm;29409;49.306;8.500;2023-09-18T04:48:43;41.82;38.67;52.43;;
43787;Laerm;29409;49.306;8.500;2023-09-18T04:49:44;42.59;38.05;52.12;;
43787;Laerm;29409;49.306;8.500;2023-09-18T04:50:48;41.81;38.37;57.56;;
43787;Laerm;29409;49.306;8.500;2023-09-18T04:51:48;43.66;39.21;49.47;;
43787;Laerm;29409;49.306;8.500;2023-09-18T04:52:48;41.37;36.91;47.48;;
43787;Laerm;29409;49.306;8.500;2023-09-18T04:53:50;41.40;37.70;49.34;;
43787;Laerm;29409;49.306;8.500;2023-09-18T04:54:52;42.83;39.21;52.79;;
43787;Laerm;29409;49.306;8.500;2023-09-18T04:55:52;42.41;39.08;48.40;;
43787;Laerm;29409;49.306;8.500;2023-09-18T04:56:52;42.02;38.05;47.95;;
43787;Laerm;29409;49.306;8.500;2023-09-18T04:57:52;47.90;38.67;64.16;;
43787;Laerm;29409;49.306;8.500;2023-09-18T04:58:53;42.62;38.95;47.77;;
43787;Laerm;29409;49.306;8.500;2023-09-18T04:59:53;42.10;38.52;45.63;;
43787;Laerm;29409;49.306;8.500;2023-09-18T05:00:57;42.50;38.21;46.84;;
43787;Laerm;29409;49.306;8.500;2023-09-18T05:01:59;42.06;38.81;47.81;;
43787;Laerm;29409;49.306;8.500;2023-09-18T05:02:59;42.01;38.21;46.07;;
43787;Laerm;29409;49.306;8.500;2023-09-18T05:04:02;41.42;38.21;47.46;;
43787;Laerm;29409;49.306;8.500;2023-09-18T05:05:02;42.82;37.52;50.96;;
43787;Laerm;29409;49.306;8.500;2023-09-18T05:06:03;43.98;38.21;53.90;;
43787;Laerm;29409;49.306;8.500;2023-09-18T05:07:04;43.95;39.46;52.06;;
43787;Laerm;29409;49.306;8.500;2023-09-18T05:08:06;51.59;40.53;60.67;;
43787;Laerm;29409;49.306;8.500;2023-09-18T05:09:11;42.79;39.21;46.87;;
43787;Laerm;29409;49.306;8.500;2023-09-18T05:10:11;41.94;38.95;44.97;;
43787;Laerm;29409;49.306;8.500;2023-09-18T05:11:11;44.28;39.70;53.85;;
43787;Laerm;29409;49.306;8.500;2023-09-18T05:12:12;42.28;39.08;48.67;;
43787;Laerm;29409;49.306;8.500;2023-09-18T05:13:13;49.09;38.52;66.94;;
43787;Laerm;29409;49.306;8.500;2023-09-18T05:14:14;41.26;37.88;57.12;;
43787;Laerm;29409;49.306;8.500;2023-09-18T05:15:16;41.56;37.88;46.28;;
43787;Laerm;29409;49.306;8.500;2023-09-18T05:16:16;41.57;37.70;45.60;;
43787;Laerm;29409;49.306;8.500;2023-09-18T05:17:17;41.59;38.21;43.68;;
43787;Laerm;29409;49.306;8.500;2023-09-18T05:18:17;41.67;37.52;46.30;;
43787;Laerm;29409;49.306;8.500;2023-09-18T05:19:18;42.94;39.21;46.76;;
43787;Laerm;29409;49.306;8.500;2023-09-18T05:20:18;43.55;40.53;47.61;;
43787;Laerm;29409;49.306;8.500;2023-09-18T05:21:19;45.27;39.58;57.34;;
43787;Laerm;29409;49.306;8.500;2023-09-18T05:22:24;41.67;38.95;44.27;;
43787;Laerm;29409;49.306;8.500;2023-09-18T05:23:24;41.71;38.95;43.81;;
43787;Laerm;29409;49.306;8.500;2023-09-18T05:24:25;42.10;39.08;47.04;;
43787;Laerm;29409;49.306;8.500;2023-09-18T05:25:27;42.64;38.81;46.73;;
43787;Laerm;29409;49.306;8.500;2023-09-18T05:26:29;50.67;40.08;66.62;;
43787;Laerm;29409;49.306;8.500;2023-09-18T05:27:30;45.88;38.05;60.16;;
43787;Laerm;29409;49.306;8.500;2023-09-18T05:28:30;44.77;39.81;55.29;;
43787;Laerm;29409;49.306;8.500;2023-09-18T05:29:31;42.20;39.23;47.06;;
43787;Laerm;29409;49.306;8.500;2023-09-18T05:30:32;42.92;39.21;59.39;;
43787;Laerm;29409;49.306;8.500;2023-09-18T05:31:34;41.98;38.52;54.27;;
43787;Laerm;29409;49.306;8.500;2023-09-18T05:32:37;47.87;40.33;60.52;;
43787;Laerm;29409;49.306;8.500;2023-09-18T05:33:37;42.26;38.95;45.51;;
43787;Laerm;29409;49.306;8.500;2023-09-18T05:34:41;43.04;39.70;48.95;;
43787;Laerm;29409;49.306;8.500;2023-09-18T05:35:42;42.30;38.37;63.15;;
43787;Laerm;29409;49.306;8.500;2023-09-18T05:36:43;42.64;38.67;48.63;;
43787;Laerm;29409;49.306;8.500;2023-09-18T05:37:46;43.00;40.13;47.34;;
43787;Laerm;29409;49.306;8.500;2023-09-18T05:38:47;42.95;39.92;51.29;;
43787;Laerm;29409;49.306;8.500;2023-09-18T05:39:48;48.39;40.13;63.17;;
43787;Laerm;29409;49.306;8.500;2023-09-18T05:40:52;43.38;40.98;47.12;;
43787;Laerm;29409;49.306;8.500;2023-09-18T05:41:52;45.54;40.89;54.10;;
43787;Laerm;29409;49.306;8.500;2023-09-18T05:42:53;42.39;39.92;49.83;;